Time;durP1;ratioP1;P1;durP2;ratioP2;P2;SDS_P1;SDS_P2;PMS_P1;PMS_P2;Temp;Humidity;BMP_temperature;BMP_pressure;BME280_temperature;BME280_humidity;BME280_pressure;Samples;Min_cycle;Max_cycle;Signal;HPM_P1;HPM_P2
2022/09/24 00:01:25;;;;;;;;;;;;;;;17.18;36.02;99296.09;4467506;32;33661;-83
2022/09/24 00:03:53;;;;;;;;;;;;;;;17.13;36.18;99289.19;4467436;32;34023;-83
2022/09/24 00:06:21;;;;;;;;;;;;;;;17.18;36.21;99295.22;4453114;32;34186;-83
2022/09/24 00:08:49;;;;;;;;;;;;;;;17.13;36.26;99284.81;4467571;32;34553;-82
2022/09/24 00:11:19;;;;;;;;;;;;;;;17.14;36.11;99293.53;4453370;32;33693;-83
2022/09/24 00:13:47;;;;;;;;;;;;;;;17.16;35.83;99289.12;4467617;32;34391;-83
2022/09/24 00:16:15;;;;;;;;;;;;;;;17.25;35.71;99289.03;4466744;32;35062;-83
2022/09/24 00:18:42;;;;;;;;;;;;;;;17.15;35.74;99285.66;4453145;32;34565;-82
2022/09/24 00:21:13;;;;;;;;;;;;;;;17.23;35.67;99282.94;4467045;32;33628;-85
2022/09/24 00:23:40;;;;;;;;;;;;;;;17.18;35.80;99287.38;4466799;32;34086;-92
2022/09/24 00:28:58;;;;;;;;;;;;;;;17.34;35.58;99281.03;4466852;32;34287;-83
2022/09/24 00:31:25;;;;;;;;;;;;;;;17.26;35.95;99290.75;4452948;32;34572;-83
2022/09/24 00:33:53;;;;;;;;;;;;;;;17.06;36.41;99290.16;4466094;32;34958;-83
2022/09/24 00:36:20;;;;;;;;;;;;;;;17.24;35.99;99293.41;4466760;32;34428;-83
2022/09/24 00:38:52;;;;;;;;;;;;;;;17.06;36.43;99292.75;4466663;32;34031;-84
2022/09/24 00:41:19;;;;;;;;;;;;;;;16.99;36.62;99295.44;4468556;32;33767;-92
2022/09/24 00:43:47;;;;;;;;;;;;;;;16.92;36.80;99290.28;4469198;32;34322;-82
2022/09/24 00:46:17;;;;;;;;;;;;;;;16.90;36.63;99282.47;4468574;32;33862;-83
2022/09/24 00:48:45;;;;;;;;;;;;;;;17.03;36.29;99286.66;4482919;32;35350;-84
2022/09/24 00:51:13;;;;;;;;;;;;;;;16.90;36.48;99279.84;4469267;32;33227;-92
2022/09/24 00:53:40;;;;;;;;;;;;;;;16.90;36.57;99276.37;4469086;32;33622;-93
2022/09/24 00:56:08;;;;;;;;;;;;;;;16.97;36.59;99281.50;4483032;32;35233;-82
2022/09/24 00:58:36;;;;;;;;;;;;;;;16.85;36.85;99270.28;4470388;32;35184;-92
2022/09/24 01:01:04;;;;;;;;;;;;;;;16.88;36.78;99276.34;4458076;32;33391;-91
2022/09/24 01:03:31;;;;;;;;;;;;;;;16.76;36.83;99268.66;4469217;32;33704;-83
2022/09/24 01:05:59;;;;;;;;;;;;;;;16.87;36.68;99263.28;4483050;32;34364;-89
2022/09/24 01:08:26;;;;;;;;;;;;;;;16.85;36.74;99268.53;4469994;32;35449;-94
2022/09/24 01:11:02;;;;;;;;;;;;;;;16.88;36.62;99265.88;4479010;32;33670;-83
2022/09/24 01:13:48;;;;;;;;;;;;;;;16.75;36.81;99266.91;4484256;32;33849;-83
2022/09/24 01:16:23;;;;;;;;;;;;;;;16.74;36.86;99266.06;4483756;32;34375;-92
2022/09/24 01:19:09;;;;;;;;;;;;;;;16.66;36.91;99259.09;4481342;32;33692;-85
2022/09/24 01:21:55;;;;;;;;;;;;;;;16.72;36.68;99259.06;4482993;31;33464;-82
2022/09/24 01:24:25;;;;;;;;;;;;;;;16.68;36.73;99252.13;4483580;31;34304;-94
2022/09/24 01:27:10;;;;;;;;;;;;;;;16.64;36.77;99253.91;4484424;32;34336;-94
2022/09/24 01:29:51;;;;;;;;;;;;;;;16.56;36.91;99254.87;4477813;32;34501;-88
2022/09/24 01:32:21;;;;;;;;;;;;;;;16.67;36.67;99251.25;4484670;32;33182;-95
2022/09/24 01:34:54;;;;;;;;;;;;;;;16.64;36.72;99253.03;4469673;32;33994;-93
2022/09/24 01:37:22;;;;;;;;;;;;;;;16.75;36.55;99248.59;4470273;32;34388;-93
2022/09/24 01:39:50;;;;;;;;;;;;;;;16.66;36.72;99248.63;4477972;32;35499;-86
2022/09/24 01:42:17;;;;;;;;;;;;;;;16.74;36.56;99238.97;4470643;32;33750;-84
2022/09/24 01:44:44;;;;;;;;;;;;;;;16.89;36.22;99241.44;4469482;32;34870;-85
2022/09/24 01:47:14;;;;;;;;;;;;;;;16.81;36.14;99238.03;4470187;32;33943;-91
2022/09/24 01:49:41;;;;;;;;;;;;;;;16.65;36.50;99229.44;4472345;32;34428;-84
2022/09/24 01:52:09;;;;;;;;;;;;;;;16.49;37.03;99228.75;4469245;32;33550;-84
2022/09/24 01:54:38;;;;;;;;;;;;;;;16.60;36.68;99230.41;4458101;32;34341;-83
2022/09/24 01:57:05;;;;;;;;;;;;;;;16.58;36.87;99237.38;4470114;32;34624;-92
2022/09/24 02:00:02;;;;;;;;;;;;;;;16.47;36.89;99230.50;4476094;31;34625;-95
2022/09/24 02:02:38;;;;;;;;;;;;;;;16.64;36.60;99237.34;4456757;32;34258;-83
2022/09/24 02:05:07;;;;;;;;;;;;;;;16.55;36.71;99230.41;4474770;32;34290;-84
2022/09/24 02:07:35;;;;;;;;;;;;;;;16.38;37.08;99240.22;4469247;32;34508;-94
2022/09/24 02:10:02;;;;;;;;;;;;;;;16.41;37.00;99234.94;4464172;32;34409;-83
2022/09/24 02:12:31;;;;;;;;;;;;;;;16.65;36.46;99236.44;4461563;32;33291;-83
2022/09/24 02:15:10;;;;;;;;;;;;;;;16.71;36.35;99233.78;4459733;31;33894;-83
2022/09/24 02:17:38;;;;;;;;;;;;;;;16.70;36.38;99237.25;4483852;32;34304;-84
2022/09/24 02:20:07;;;;;;;;;;;;;;;16.66;36.39;99238.16;4478338;32;34273;-83
2022/09/24 02:22:34;;;;;;;;;;;;;;;16.70;36.20;99234.62;4484030;32;33531;-83
2022/09/24 02:25:03;;;;;;;;;;;;;;;16.74;36.01;99238.97;4479701;32;34712;-83
2022/09/24 02:27:30;;;;;;;;;;;;;;;16.68;36.23;99236.41;4458855;32;35831;-83
2022/09/24 02:29:57;;;;;;;;;;;;;;;16.49;36.79;99235.75;4460571;32;34310;-84
2022/09/24 02:32:25;;;;;;;;;;;;;;;16.51;36.59;99245.28;4468428;32;33846;-84
2022/09/24 02:34:54;;;;;;;;;;;;;;;16.65;36.31;99239.06;4458599;32;35078;-83
2022/09/24 02:37:22;;;;;;;;;;;;;;;16.78;35.96;99238.94;4465407;32;33985;-82
2022/09/24 02:39:49;;;;;;;;;;;;;;;16.86;35.78;99251.97;4460836;32;33991;-83
2022/09/24 02:42:16;;;;;;;;;;;;;;;16.88;35.63;99237.06;4483495;32;33401;-93
2022/09/24 02:44:44;;;;;;;;;;;;;;;16.89;35.53;99235.31;4479663;32;34131;-84
2022/09/24 02:47:11;;;;;;;;;;;;;;;16.99;35.19;99229.97;4468172;32;34218;-83
2022/09/24 02:49:39;;;;;;;;;;;;;;;16.95;35.27;99233.50;4468357;32;34542;-83
2022/09/24 02:52:06;;;;;;;;;;;;;;;16.96;35.34;99235.22;4468053;32;33807;-84
2022/09/24 02:54:33;;;;;;;;;;;;;;;16.88;35.70;99241.44;4469679;32;34013;-83
2022/09/24 02:57:00;;;;;;;;;;;;;;;16.86;35.84;99238.87;4483855;32;34409;-83
2022/09/24 02:59:28;;;;;;;;;;;;;;;16.93;35.84;99239.63;4478917;32;35243;-84
2022/09/24 03:01:55;;;;;;;;;;;;;;;16.84;35.93;99240.63;4468155;32;33681;-85
2022/09/24 03:04:22;;;;;;;;;;;;;;;16.94;35.82;99234.41;4468134;32;33999;-84
2022/09/24 03:06:50;;;;;;;;;;;;;;;16.93;35.97;99232.69;4467763;32;35158;-83
2022/09/24 03:09:17;;;;;;;;;;;;;;;16.96;35.82;99227.38;4470303;32;34652;-84
2022/09/24 03:11:46;;;;;;;;;;;;;;;16.95;35.83;99230.87;4466795;32;33679;-93
2022/09/24 03:14:13;;;;;;;;;;;;;;;16.92;36.14;99228.31;4476813;32;34293;-84
2022/09/24 03:16:40;;;;;;;;;;;;;;;16.78;36.46;99224.97;4470782;32;34313;-83
2022/09/24 03:19:07;;;;;;;;;;;;;;;16.91;36.26;99221.34;4478011;32;35218;-85
2022/09/24 03:21:35;;;;;;;;;;;;;;;16.98;36.11;99214.28;4468407;32;33681;-93
2022/09/24 03:24:03;;;;;;;;;;;;;;;16.88;36.20;99210.91;4482294;32;34913;-83
2022/09/24 03:26:30;;;;;;;;;;;;;;;16.69;36.79;99214.59;4465401;32;35299;-83
2022/09/24 03:28:57;;;;;;;;;;;;;;;16.75;36.86;99215.41;4477933;32;34417;-94
2022/09/24 03:31:25;;;;;;;;;;;;;;;16.71;36.81;99204.97;4483185;32;33712;-83
2022/09/24 03:33:52;;;;;;;;;;;;;;;16.85;36.49;99207.44;4483234;32;34550;-83
2022/09/24 03:36:21;;;;;;;;;;;;;;;16.82;36.51;99205.75;4472660;32;34384;-83
2022/09/24 03:38:50;;;;;;;;;;;;;;;16.78;36.67;99210.16;4482778;32;34416;-85
2022/09/24 03:41:17;;;;;;;;;;;;;;;16.76;36.74;99209.28;4479867;32;34196;-84
2022/09/24 03:43:44;;;;;;;;;;;;;;;16.85;36.62;99210.94;4479127;32;34671;-82
2022/09/24 03:46:12;;;;;;;;;;;;;;;16.88;36.56;99205.66;4483222;32;34137;-94
2022/09/24 03:48:39;;;;;;;;;;;;;;;16.85;36.57;99197.84;4470244;32;34099;-82
2022/09/24 03:51:10;;;;;;;;;;;;;;;16.92;36.48;99196.88;4453711;32;34990;-92
2022/09/24 03:53:37;;;;;;;;;;;;;;;16.74;36.70;99192.75;4454505;32;34377;-91
2022/09/24 03:56:06;;;;;;;;;;;;;;;16.65;36.97;99194.56;4476744;32;34182;-90
2022/09/24 03:58:35;;;;;;;;;;;;;;;16.71;36.90;99194.50;4466070;32;34976;-94
2022/09/24 04:01:03;;;;;;;;;;;;;;;16.68;37.05;99194.53;4473149;32;33158;-87
2022/09/24 04:03:30;;;;;;;;;;;;;;;16.57;37.32;99194.66;4469335;32;33975;-82
2022/09/24 04:05:57;;;;;;;;;;;;;;;16.49;37.43;99197.34;4475262;32;34022;-82
2022/09/24 04:08:25;;;;;;;;;;;;;;;16.54;37.29;99194.69;4479234;32;33595;-82
2022/09/24 04:10:52;;;;;;;;;;;;;;;16.56;37.36;99197.28;4483338;32;33636;-82
2022/09/24 04:13:20;;;;;;;;;;;;;;;16.57;37.48;99199.88;4483073;32;35054;-83
2022/09/24 04:15:49;;;;;;;;;;;;;;;16.63;37.64;99201.53;4468168;32;34259;-83
2022/09/24 04:18:16;;;;;;;;;;;;;;;16.77;37.39;99197.06;4466176;32;34977;-92
2022/09/24 04:20:44;;;;;;;;;;;;;;;16.83;37.23;99194.38;4466658;32;35121;-82
2022/09/24 04:23:11;;;;;;;;;;;;;;;16.70;37.29;99192.75;4466992;32;34011;-83
2022/09/24 04:25:41;;;;;;;;;;;;;;;16.71;37.32;99200.59;4466582;32;34345;-91
2022/09/24 04:28:09;;;;;;;;;;;;;;;16.51;37.91;99200.78;4466746;32;34521;-93
2022/09/24 04:30:36;;;;;;;;;;;;;;;16.63;37.78;99199.81;4452801;32;33679;-83
2022/09/24 04:33:06;;;;;;;;;;;;;;;16.69;37.74;99199.75;4474136;32;34226;-82
2022/09/24 04:35:34;;;;;;;;;;;;;;;16.73;37.57;99209.31;4479645;32;34027;-95
2022/09/24 04:38:03;;;;;;;;;;;;;;;16.82;37.66;99200.50;4482264;32;34884;-83
2022/09/24 04:40:31;;;;;;;;;;;;;;;16.50;38.50;99198.22;4472440;32;34425;-83
2022/09/24 04:42:58;;;;;;;;;;;;;;;16.58;38.38;99198.13;4467390;32;34709;-83
2022/09/24 04:45:25;;;;;;;;;;;;;;;16.64;38.40;99196.31;4467372;32;34308;-83
2022/09/24 04:47:56;;;;;;;;;;;;;;;16.53;38.74;99204.28;4467161;32;35292;-83
2022/09/24 04:50:27;;;;;;;;;;;;;;;16.66;38.69;99206.75;4467929;32;34443;-93
2022/09/24 04:52:55;;;;;;;;;;;;;;;16.66;38.77;99210.22;4467085;32;34108;-84
2022/09/24 04:55:22;;;;;;;;;;;;;;;16.73;38.72;99206.69;4473900;32;34385;-83
2022/09/24 04:57:49;;;;;;;;;;;;;;;16.85;38.65;99213.53;4466788;32;34187;-84
2022/09/24 05:00:18;;;;;;;;;;;;;;;16.81;38.65;99209.22;4469981;32;33647;-90
2022/09/24 05:02:45;;;;;;;;;;;;;;;16.90;38.63;99210.91;4482343;32;34221;-92
2022/09/24 05:05:13;;;;;;;;;;;;;;;16.91;38.85;99203.00;4412202;32;1959235;-88
2022/09/24 05:07:41;;;;;;;;;;;;;;;17.06;39.08;99201.09;4451330;32;35239;-84
2022/09/24 05:10:08;;;;;;;;;;;;;;;17.11;39.09;99194.88;4480154;32;33424;-83
2022/09/24 05:12:35;;;;;;;;;;;;;;;17.32;38.66;99183.25;4466848;32;33726;-84
2022/09/24 05:15:03;;;;;;;;;;;;;;;17.36;38.37;99187.56;4469620;32;35142;-83
2022/09/24 05:17:33;;;;;;;;;;;;;;;17.46;37.89;99183.94;4465431;32;34318;-83
2022/09/24 05:20:10;;;;;;;;;;;;;;;17.42;38.10;99189.22;4453797;32;33507;-89
2022/09/24 05:22:40;;;;;;;;;;;;;;;17.36;38.33;99198.03;4453331;32;33521;-82
2022/09/24 05:25:08;;;;;;;;;;;;;;;17.42;38.34;99187.47;4472659;32;35201;-89
2022/09/24 05:27:35;;;;;;;;;;;;;;;17.42;39.05;99192.69;4463349;32;34342;-84
2022/09/24 05:30:03;;;;;;;;;;;;;;;17.77;38.32;99187.84;4471924;32;33449;-83
2022/09/24 05:32:32;;;;;;;;;;;;;;;16.92;40.51;99190.78;4476012;32;34628;-84
2022/09/24 05:35:00;;;;;;;;;;;;;;;17.56;39.00;99195.13;4465473;32;34707;-93
2022/09/24 05:37:27;;;;;;;;;;;;;;;17.65;39.34;99187.16;4451422;32;33629;-93
2022/09/24 05:39:56;;;;;;;;;;;;;;;17.56;39.09;99195.13;4465551;32;33513;-86
2022/09/24 05:42:23;;;;;;;;;;;;;;;17.65;39.12;99189.75;4466378;32;33904;-84
2022/09/24 05:44:50;;;;;;;;;;;;;;;16.35;42.47;99188.78;4468246;32;33931;-92
2022/09/24 05:47:18;;;;;;;;;;;;;;;17.34;39.96;99185.84;4467575;32;34038;-83
2022/09/24 05:49:45;;;;;;;;;;;;;;;17.69;39.20;99185.31;4468726;32;33291;-84
2022/09/24 05:52:13;;;;;;;;;;;;;;;17.60;39.32;99191.56;4468535;32;34824;-84
2022/09/24 05:54:40;;;;;;;;;;;;;;;17.76;39.10;99200.09;4467762;32;34083;-87
2022/09/24 05:57:07;;;;;;;;;;;;;;;18.18;38.95;99200.25;4467708;32;35254;-85
2022/09/24 05:59:34;;;;;;;;;;;;;;;16.64;41.96;99205.94;4468291;32;34162;-85
2022/09/24 06:02:02;;;;;;;;;;;;;;;17.57;39.67;99209.09;4468631;32;34187;-88
2022/09/24 06:04:30;;;;;;;;;;;;;;;17.59;39.90;99213.44;4468422;32;34844;-92
2022/09/24 06:06:57;;;;;;;;;;;;;;;17.70;39.86;99211.53;4467982;32;34079;-87
2022/09/24 06:09:24;;;;;;;;;;;;;;;17.90;39.49;99205.12;4469120;32;34031;-84
2022/09/24 06:11:52;;;;;;;;;;;;;;;17.93;39.31;99212.94;4468628;32;33766;-85
2022/09/24 06:14:20;;;;;;;;;;;;;;;18.19;38.86;99199.41;4468201;32;34501;-85
2022/09/24 06:16:47;;;;;;;;;;;;;;;17.75;40.23;99211.47;4468253;32;33912;-85
2022/09/24 06:19:14;;;;;;;;;;;;;;;18.23;39.24;99209.81;4477329;32;33983;-83
2022/09/24 06:21:41;;;;;;;;;;;;;;;17.83;40.41;99214.84;4483893;32;34263;-84
2022/09/24 06:24:09;;;;;;;;;;;;;;;17.79;40.36;99218.41;4476248;32;35136;-86
2022/09/24 06:26:36;;;;;;;;;;;;;;;17.93;40.23;99219.06;4470409;32;35206;-91
2022/09/24 06:29:03;;;;;;;;;;;;;;;18.16;40.21;99213.44;4467908;32;34179;-85
2022/09/24 06:31:31;;;;;;;;;;;;;;;17.92;40.87;99219.09;4468372;32;34836;-89
2022/09/24 06:34:01;;;;;;;;;;;;;;;18.60;39.05;99229.25;4468261;32;34516;-91
2022/09/24 06:36:28;;;;;;;;;;;;;;;17.56;41.48;99226.59;4468267;32;33928;-85
2022/09/24 06:38:57;;;;;;;;;;;;;;;18.33;40.13;99220.12;4468224;32;33275;-86
2022/09/24 06:41:24;;;;;;;;;;;;;;;17.66;42.10;99238.69;4468099;32;34914;-85
2022/09/24 06:43:53;;;;;;;;;;;;;;;16.79;43.95;99231.97;4468020;32;33708;-85
2022/09/24 06:46:22;;;;;;;;;;;;;;;18.22;41.45;99220.31;4472728;32;35249;-91
2022/09/24 06:48:49;;;;;;;;;;;;;;;17.02;43.90;99216.84;4469980;32;32896;-89
2022/09/24 06:51:16;;;;;;;;;;;;;;;17.45;42.83;99228.50;4468962;32;33772;-87
2022/09/24 06:53:43;;;;;;;;;;;;;;;18.38;40.14;99216.53;4468078;32;33962;-84
2022/09/24 06:56:11;;;;;;;;;;;;;;;18.24;40.91;99224.66;4467956;32;34632;-85
2022/09/24 06:58:38;;;;;;;;;;;;;;;17.34;42.95;99228.63;4468115;32;33457;-90
2022/09/24 07:01:05;;;;;;;;;;;;;;;17.62;42.29;99229.13;4468497;32;33875;-90
2022/09/24 07:03:33;;;;;;;;;;;;;;;17.99;42.20;99232.09;4469932;32;34321;-86
2022/09/24 07:06:02;;;;;;;;;;;;;;;18.52;40.56;99225.91;4483274;32;34532;-92
2022/09/24 07:08:29;;;;;;;;;;;;;;;18.22;41.28;99233.44;4484015;32;33754;-88
2022/09/24 07:10:57;;;;;;;;;;;;;;;18.40;40.76;99235.72;4483727;31;33794;-91
2022/09/24 07:13:24;;;;;;;;;;;;;;;17.66;42.49;99250.94;4483884;32;34052;-89
2022/09/24 07:15:51;;;;;;;;;;;;;;;17.25;43.88;99244.50;4483835;32;34059;-85
2022/09/24 07:18:19;;;;;;;;;;;;;;;17.38;44.40;99243.44;4477481;32;33193;-86
2022/09/24 07:20:52;;;;;;;;;;;;;;;16.23;46.23;99251.69;4468086;32;34047;-89
2022/09/24 07:23:20;;;;;;;;;;;;;;;17.13;44.34;99257.75;4467856;32;34830;-85
2022/09/24 07:25:47;;;;;;;;;;;;;;;17.27;43.50;99254.06;4467436;32;34663;-91
2022/09/24 07:28:16;;;;;;;;;;;;;;;17.18;42.88;99254.19;4468675;32;33751;-85
2022/09/24 07:30:43;;;;;;;;;;;;;;;17.05;42.32;99250.00;4467687;32;35010;-87
2022/09/24 07:33:10;;;;;;;;;;;;;;;17.34;41.73;99248.75;4467627;32;34119;-85
2022/09/24 07:35:38;;;;;;;;;;;;;;;17.12;42.32;99253.37;4468013;32;34541;-89
2022/09/24 07:38:06;;;;;;;;;;;;;;;17.74;42.13;99262.16;4467808;32;33549;-91
2022/09/24 07:40:33;;;;;;;;;;;;;;;17.36;42.16;99258.31;4467786;32;34077;-86
2022/09/24 07:43:02;;;;;;;;;;;;;;;17.33;41.71;99266.22;4458777;32;34399;-86
2022/09/24 07:45:31;;;;;;;;;;;;;;;18.07;41.07;99265.16;4483412;32;35103;-86
2022/09/24 07:47:59;;;;;;;;;;;;;;;18.67;40.27;99259.75;4483581;32;33628;-85
2022/09/24 07:50:26;;;;;;;;;;;;;;;18.63;40.34;99263.34;4458953;32;33569;-83
2022/09/24 07:52:54;;;;;;;;;;;;;;;18.71;39.88;99261.47;4466532;32;35085;-84
2022/09/24 07:55:22;;;;;;;;;;;;;;;18.27;40.66;99267.50;4482661;32;34614;-88
2022/09/24 07:57:50;;;;;;;;;;;;;;;18.38;40.02;99263.78;4465188;32;33281;-91
2022/09/24 08:00:18;;;;;;;;;;;;;;;18.45;40.04;99257.53;4455388;32;33763;-91
2022/09/24 08:02:46;;;;;;;;;;;;;;;19.20;38.67;99260.50;4483438;32;34953;-93
2022/09/24 08:05:14;;;;;;;;;;;;;;;19.42;38.77;99264.41;4474036;32;33861;-91
2022/09/24 08:07:41;;;;;;;;;;;;;;;19.47;37.24;99261.66;4468666;32;33702;-93
2022/09/24 08:10:09;;;;;;;;;;;;;;;19.92;35.79;99258.94;4454718;32;34328;-88
2022/09/24 08:12:36;;;;;;;;;;;;;;;19.36;36.82;99259.31;4481662;32;34270;-89
2022/09/24 08:15:04;;;;;;;;;;;;;;;19.48;37.49;99254.69;4482951;32;33226;-89
2022/09/24 08:17:31;;;;;;;;;;;;;;;18.80;38.87;99248.16;4470025;32;33381;-92
2022/09/24 08:19:58;;;;;;;;;;;;;;;19.25;37.92;99250.78;4472145;32;32726;-96
2022/09/24 08:22:25;;;;;;;;;;;;;;;19.04;37.82;99257.31;4469172;32;34286;-90
2022/09/24 08:24:53;;;;;;;;;;;;;;;18.64;39.24;99244.94;4466879;32;34584;-89
2022/09/24 08:27:22;;;;;;;;;;;;;;;17.64;40.67;99250.06;4467893;32;33542;-91
2022/09/24 08:29:49;;;;;;;;;;;;;;;18.48;40.48;99240.84;4467259;32;34211;-87
2022/09/24 08:32:16;;;;;;;;;;;;;;;18.50;38.54;99232.97;4467269;32;33598;-93
2022/09/24 08:34:44;;;;;;;;;;;;;;;18.92;38.83;99229.53;4466542;32;33967;-91
2022/09/24 08:37:12;;;;;;;;;;;;;;;17.64;41.08;99234.34;4468866;32;33795;-92
2022/09/24 08:39:40;;;;;;;;;;;;;;;19.24;38.53;99222.72;4469972;32;33998;-93
2022/09/24 08:42:26;;;;;;;;;;;;;;;19.12;38.38;99230.87;4468408;32;34060;-89
2022/09/24 08:47:44;;;;;;;;;;;;;;;18.78;39.57;99228.94;4455670;32;34548;-92
2022/09/24 08:50:19;;;;;;;;;;;;;;;19.45;37.92;99232.78;4463122;32;33742;-90
2022/09/24 08:53:06;;;;;;;;;;;;;;;19.65;37.77;99226.25;4468255;32;34482;-93
2022/09/24 08:55:53;;;;;;;;;;;;;;;19.85;37.02;99223.13;4482811;32;34027;-84
2022/09/24 08:58:23;;;;;;;;;;;;;;;20.15;36.96;99222.41;4475526;32;33449;-83
2022/09/24 09:00:54;;;;;;;;;;;;;;;19.79;37.37;99237.31;4479406;32;35330;-95
2022/09/24 09:03:25;;;;;;;;;;;;;;;20.77;36.06;99234.84;4467158;32;34098;-87
2022/09/24 09:06:02;;;;;;;;;;;;;;;20.30;35.84;99229.03;4472054;32;35674;-84
2022/09/24 09:08:39;;;;;;;;;;;;;;;20.73;35.56;99221.81;4461854;32;33582;-85
2022/09/24 09:11:27;;;;;;;;;;;;;;;20.86;35.32;99212.62;4476059;32;34958;-84
2022/09/24 09:13:56;;;;;;;;;;;;;;;19.73;38.95;99215.53;4454565;32;34711;-90
2022/09/24 09:16:25;;;;;;;;;;;;;;;20.44;37.08;99217.28;4468168;32;35190;-85
2022/09/24 09:18:55;;;;;;;;;;;;;;;21.05;35.58;99208.56;4454647;32;33711;-85
2022/09/24 09:21:41;;;;;;;;;;;;;;;20.64;35.85;99217.63;4454263;32;35064;-86
2022/09/24 09:24:14;;;;;;;;;;;;;;;21.34;35.64;99210.38;4482550;32;34456;-85
2022/09/24 09:26:42;;;;;;;;;;;;;;;20.58;37.26;99204.66;4470133;32;34249;-85
2022/09/24 09:29:10;;;;;;;;;;;;;;;21.45;35.45;99202.13;4470902;32;34432;-82
2022/09/24 09:31:55;;;;;;;;;;;;;;;20.52;37.25;99212.69;4484676;32;34958;-90
2022/09/24 09:34:42;;;;;;;;;;;;;;;19.98;38.27;99205.31;4475848;32;34927;-84
2022/09/24 09:37:21;;;;;;;;;;;;;;;19.38;38.45;99209.31;4473793;32;34396;-85
2022/09/24 09:40:01;;;;;;;;;;;;;;;19.49;39.08;99203.81;4474973;32;34202;-82
2022/09/24 09:42:31;;;;;;;;;;;;;;;20.22;38.01;99188.88;4478937;32;33886;-84
2022/09/24 09:44:59;;;;;;;;;;;;;;;19.84;40.02;99198.59;4462627;32;33837;-92
2022/09/24 09:47:34;;;;;;;;;;;;;;;20.59;38.16;99194.06;4470463;32;34989;-84
2022/09/24 09:50:04;;;;;;;;;;;;;;;21.32;35.88;99190.19;4471141;32;35634;-91
2022/09/24 09:52:35;;;;;;;;;;;;;;;20.45;37.79;99187.41;4455306;32;34251;-84
2022/09/24 09:55:04;;;;;;;;;;;;;;;20.70;37.30;99191.13;4456008;32;34395;-85
2022/09/24 09:57:31;;;;;;;;;;;;;;;20.22;38.20;99196.78;4467706;32;34624;-88
2022/09/24 09:59:58;;;;;;;;;;;;;;;20.06;38.50;99195.44;4453592;32;33292;-85
2022/09/24 10:02:29;;;;;;;;;;;;;;;20.99;37.26;99194.72;4480531;32;34225;-85
2022/09/24 10:04:58;;;;;;;;;;;;;;;20.88;37.97;99197.66;4464810;32;34301;-85
2022/09/24 10:07:25;;;;;;;;;;;;;;;20.63;37.81;99184.31;4483946;32;34575;-84
2022/09/24 10:10:00;;;;;;;;;;;;;;;21.53;36.00;99188.72;4469115;32;33440;-84
2022/09/24 10:12:27;;;;;;;;;;;;;;;21.62;35.25;99189.25;4484096;31;33898;-85
2022/09/24 10:14:59;;;;;;;;;;;;;;;20.81;37.17;99181.16;4470055;32;35144;-89
2022/09/24 10:17:27;;;;;;;;;;;;;;;21.23;36.34;99175.53;4478944;32;35062;-85
2022/09/24 10:19:55;;;;;;;;;;;;;;;21.64;35.56;99170.75;4456692;32;33573;-84
2022/09/24 10:22:25;;;;;;;;;;;;;;;22.08;35.42;99173.69;4470086;32;34175;-84
2022/09/24 10:24:53;;;;;;;;;;;;;;;22.06;35.82;99167.63;4454989;32;34201;-86
2022/09/24 10:27:29;;;;;;;;;;;;;;;21.90;34.58;99163.78;4461731;32;34139;-91
2022/09/24 10:32:43;;;;;;;;;;;;;;;22.16;33.75;99161.16;4473054;32;34986;-90
2022/09/24 10:35:20;;;;;;;;;;;;;;;22.51;33.33;99159.91;4475458;32;34551;-92
2022/09/24 10:37:52;;;;;;;;;;;;;;;21.61;34.32;99155.03;4484135;32;34997;-93
2022/09/24 10:40:27;;;;;;;;;;;;;;;22.38;32.24;99147.16;4484102;32;33445;-90
2022/09/24 10:42:56;;;;;;;;;;;;;;;22.95;31.64;99140.69;4474519;32;34855;-89
2022/09/24 10:45:25;;;;;;;;;;;;;;;22.94;31.32;99146.91;4469003;32;34519;-91
2022/09/24 10:47:55;;;;;;;;;;;;;;;22.77;31.77;99155.44;4468397;32;34284;-90
2022/09/24 10:50:29;;;;;;;;;;;;;;;22.52;31.05;99145.75;4454595;32;33612;-91
2022/09/24 10:52:59;;;;;;;;;;;;;;;22.58;30.93;99153.47;4454006;32;34179;-91
2022/09/24 10:55:46;;;;;;;;;;;;;;;22.86;31.07;99144.50;4456163;32;34302;-91
2022/09/24 10:58:21;;;;;;;;;;;;;;;22.67;30.22;99154.91;4483235;32;34455;-94
2022/09/24 11:00:56;;;;;;;;;;;;;;;22.74;30.50;99151.12;4473374;32;33151;-89
2022/09/24 11:03:41;;;;;;;;;;;;;;;22.42;30.88;99164.63;4467914;32;35058;-90
2022/09/24 11:06:13;;;;;;;;;;;;;;;22.47;30.64;99155.66;4458665;32;34969;-90
2022/09/24 11:08:46;;;;;;;;;;;;;;;22.89;30.45;99143.56;4466130;32;35312;-92
2022/09/24 11:11:19;;;;;;;;;;;;;;;23.25;29.66;99151.88;4464648;32;33626;-88
2022/09/24 11:14:05;;;;;;;;;;;;;;;22.86;30.03;99138.38;4471456;32;34121;-86
2022/09/24 11:16:37;;;;;;;;;;;;;;;22.49;30.78;99142.38;4470494;32;35153;-87
2022/09/24 11:19:05;;;;;;;;;;;;;;;22.81;30.06;99139.41;4470027;32;35107;-94
2022/09/24 11:21:50;;;;;;;;;;;;;;;23.35;30.40;99134.72;4476817;32;34651;-90
2022/09/24 11:24:17;;;;;;;;;;;;;;;23.64;29.40;99116.78;4454319;32;35100;-92
2022/09/24 11:26:48;;;;;;;;;;;;;;;23.92;29.46;99112.09;4465170;32;32847;-91
2022/09/24 11:29:21;;;;;;;;;;;;;;;23.23;30.12;99117.56;4482576;32;34436;-92
2022/09/24 11:31:55;;;;;;;;;;;;;;;23.50;28.65;99112.06;4483022;31;33270;-90
2022/09/24 11:34:36;;;;;;;;;;;;;;;22.80;29.90;99124.44;4466872;32;33867;-93
2022/09/24 11:37:16;;;;;;;;;;;;;;;22.94;29.89;99123.97;4469743;32;35340;-89
2022/09/24 11:39:47;;;;;;;;;;;;;;;22.17;31.79;99112.69;4483019;32;35489;-93
2022/09/24 11:42:28;;;;;;;;;;;;;;;23.11;30.52;99106.56;4460620;32;33692;-91
2022/09/24 11:45:05;;;;;;;;;;;;;;;23.39;29.71;99104.56;4459004;32;35603;-87
2022/09/24 11:47:33;;;;;;;;;;;;;;;23.23;30.05;99096.41;4467982;32;32781;-89
2022/09/24 11:50:13;;;;;;;;;;;;;;;23.19;30.19;99105.38;4467814;32;34387;-87
2022/09/24 11:52:47;;;;;;;;;;;;;;;23.59;29.85;99093.16;4467587;32;34389;-86
2022/09/24 11:55:14;;;;;;;;;;;;;;;22.94;30.76;99099.31;4453913;32;34272;-88
2022/09/24 11:57:43;;;;;;;;;;;;;;;23.76;29.44;99100.44;4468200;32;34077;-93
2022/09/24 12:00:10;;;;;;;;;;;;;;;23.53;29.41;99088.16;4475338;32;34285;-87
2022/09/24 12:02:46;;;;;;;;;;;;;;;22.94;30.03;99099.31;4453329;32;32735;-88
2022/09/24 12:05:17;;;;;;;;;;;;;;;23.76;29.70;99085.41;4453974;32;33968;-94
2022/09/24 12:07:49;;;;;;;;;;;;;;;23.54;29.22;99082.78;4453536;32;35297;-90
2022/09/24 12:10:23;;;;;;;;;;;;;;;22.80;30.71;99092.72;4467798;32;34363;-87
2022/09/24 12:12:52;;;;;;;;;;;;;;;22.98;30.51;99091.19;4453972;32;33475;-89
2022/09/24 12:15:23;;;;;;;;;;;;;;;23.24;29.65;99089.31;4454939;32;34320;-93
2022/09/24 12:17:56;;;;;;;;;;;;;;;23.52;29.22;99092.56;4469453;32;34356;-90
2022/09/24 12:20:28;;;;;;;;;;;;;;;24.08;28.66;99083.16;4469721;32;35159;-86
2022/09/24 12:22:58;;;;;;;;;;;;;;;23.81;29.05;99081.72;4472544;32;34184;-92
2022/09/24 12:25:28;;;;;;;;;;;;;;;23.44;29.45;99072.63;4458853;32;34194;-89
2022/09/24 12:27:55;;;;;;;;;;;;;;;23.30;29.86;99089.09;4459918;32;34122;-87
2022/09/24 12:33:24;;;;;;;;;;;;;;;23.18;30.32;99085.13;4481813;32;33869;-87
2022/09/24 12:35:54;;;;;;;;;;;;;;;23.66;30.46;99075.25;4481367;32;35080;-89
2022/09/24 12:38:32;;;;;;;;;;;;;;;23.58;29.65;99067.62;4464553;32;34426;-89
2022/09/24 12:41:19;;;;;;;;;;;;;;;22.55;30.30;99086.66;4467619;32;34078;-91
2022/09/24 12:44:03;;;;;;;;;;;;;;;23.25;30.65;99069.88;4481074;32;33036;-91
2022/09/24 12:46:43;;;;;;;;;;;;;;;23.08;30.41;99072.34;4462680;32;34657;-87
2022/09/24 12:49:14;;;;;;;;;;;;;;;22.89;31.19;99069.53;4467845;32;35570;-92
2022/09/24 12:51:41;;;;;;;;;;;;;;;23.36;30.35;99069.44;4481461;32;35374;-91
2022/09/24 12:54:29;;;;;;;;;;;;;;;23.35;30.25;99070.38;4467589;32;33270;-85
2022/09/24 12:57:12;;;;;;;;;;;;;;;23.71;29.72;99070.63;4481587;32;34917;-86
2022/09/24 12:59:54;;;;;;;;;;;;;;;23.14;30.79;99065.00;4455719;32;35236;-86
2022/09/24 13:02:23;;;;;;;;;;;;;;;23.23;30.65;99058.50;4481484;32;34340;-89
2022/09/24 13:04:59;;;;;;;;;;;;;;;22.78;31.40;99054.94;4457725;32;33716;-87
2022/09/24 13:07:36;;;;;;;;;;;;;;;23.70;30.19;99051.25;4469732;32;33595;-92
2022/09/24 13:10:11;;;;;;;;;;;;;;;23.53;30.24;99041.37;4451993;32;33869;-84
2022/09/24 13:12:38;;;;;;;;;;;;;;;23.50;31.38;99048.56;4465853;32;34795;-89
2022/09/24 13:15:27;;;;;;;;;;;;;;;23.24;30.52;99057.56;4465720;32;33662;-92